aviador You're here:

KCVW Decoded Metar

in
Report Time2017-07-26 22:20:00
UTC Time2017-07-26 22:37:08
Flight Rules vfr VFR
Wind190° at 08 kt
W.Rank190° ranks 5
Current wind is below 190° avg. (8.4)
Visibility9999 m
Phenomena:N/A
Clouds:N/A
Expected CloudBase > 2,400 ft AGL from Temp-Dew spread
CeilingNone
Temp31°C
Dew Point25°C (70% RH)
Heat Index37.6°C
QNH1018 hPa
Raw Report
KCVW 262220Z AUTO 19008KT 10SM CLR 31/25 A3006 RMK A01=

Extra information for KCVW:More info

Social comments